createdAt,value
2018-10-17T00:00:44.719Z,40.80
2018-10-17T00:03:14.676Z,26.30
2018-10-17T00:05:44.590Z,32.63
2018-10-17T00:08:14.536Z,35.55
2018-10-17T00:10:44.496Z,34.05
2018-10-17T00:13:14.474Z,33.50
2018-10-17T00:15:44.341Z,32.17
2018-10-17T00:18:14.343Z,30.02
2018-10-17T00:20:44.293Z,31.68
2018-10-17T00:23:14.292Z,44.95
2018-10-17T00:25:44.192Z,42.55
2018-10-17T00:28:14.173Z,38.20
2018-10-17T00:30:44.139Z,32.83
2018-10-17T00:33:14.115Z,49.67
2018-10-17T00:35:44.054Z,40.58
2018-10-17T00:38:13.948Z,36.70
2018-10-17T00:40:43.854Z,38.35
2018-10-17T00:43:13.806Z,33.10
2018-10-17T00:45:43.636Z,35.48
2018-10-17T00:48:13.572Z,36.20
2018-10-17T00:50:43.572Z,33.33
2018-10-17T00:53:13.537Z,33.23
2018-10-17T00:55:43.368Z,41.50
2018-10-17T00:58:13.262Z,32.58
2018-10-17T01:00:43.221Z,33.25
2018-10-17T01:03:13.120Z,32.70
2018-10-17T01:05:43.157Z,37.40
2018-10-17T01:08:13.077Z,33.40
2018-10-17T01:10:43.024Z,32.20
2018-10-17T01:13:13.115Z,38.60
2018-10-17T01:15:42.905Z,35.85
2018-10-17T01:18:13.117Z,40.35
2018-10-17T01:20:42.992Z,39.80
2018-10-17T01:23:12.999Z,37.70
2018-10-17T01:25:42.907Z,37.20
2018-10-17T01:28:12.868Z,39.83
2018-10-17T01:30:42.796Z,30.23
2018-10-17T01:33:13.129Z,30.23
2018-10-17T01:35:43.032Z,35.10
2018-10-17T01:38:13.136Z,31.60
2018-10-17T01:40:43.021Z,32.80
2018-10-17T01:43:12.996Z,50.58
2018-10-17T01:45:42.844Z,39.25
2018-10-17T01:48:12.769Z,38.98
2018-10-17T01:50:42.662Z,38.02
2018-10-17T01:53:12.740Z,34.38
2018-10-17T01:55:42.544Z,33.98
2018-10-17T01:58:12.708Z,34.23
2018-10-17T02:00:42.596Z,41.28
2018-10-17T02:03:12.501Z,35.20
2018-10-17T02:05:42.401Z,44.67
2018-10-17T02:08:12.276Z,34.08
2018-10-17T02:10:42.189Z,38.95
2018-10-17T02:13:12.310Z,34.03
2018-10-17T02:15:42.269Z,32.93
2018-10-17T02:18:12.140Z,35.60
2018-10-17T02:20:42.144Z,42.38
2018-10-17T02:23:12.046Z,37.70
2018-10-17T02:25:41.966Z,33.33
2018-10-17T02:28:18.744Z,31.17
2018-10-17T02:30:48.737Z,34.80
2018-10-17T02:33:18.700Z,31.30
2018-10-17T02:35:48.605Z,35.35
2018-10-17T02:38:18.485Z,31.00
2018-10-17T02:40:48.832Z,32.25
2018-10-17T02:43:18.879Z,34.67
2018-10-17T02:45:48.725Z,35.03
2018-10-17T02:48:18.644Z,33.02
2018-10-17T02:50:48.562Z,29.57
2018-10-17T02:53:18.474Z,35.88
2018-10-17T02:55:48.353Z,35.23
2018-10-17T02:58:18.237Z,35.40
2018-10-17T03:00:48.154Z,40.00
2018-10-17T03:03:18.038Z,33.25
2018-10-17T03:05:48.033Z,29.95
2018-10-17T03:08:17.908Z,35.33
2018-10-17T03:10:47.797Z,41.63
2018-10-17T03:13:17.804Z,30.40
2018-10-17T03:15:47.641Z,36.40
2018-10-17T03:18:17.557Z,38.58
2018-10-17T03:23:47.641Z,35.70
2018-10-17T03:26:17.554Z,36.65
2018-10-17T03:28:47.605Z,38.58
2018-10-17T03:31:17.739Z,34.25
2018-10-17T03:33:47.473Z,41.80
2018-10-17T03:36:17.401Z,35.65
2018-10-17T03:38:47.343Z,33.88
2018-10-17T03:41:17.262Z,31.93
2018-10-17T03:43:47.157Z,31.40
2018-10-17T03:46:17.086Z,34.73
2018-10-17T03:48:47.021Z,31.80
2018-10-17T03:51:16.933Z,35.33
2018-10-17T03:53:46.885Z,34.27
2018-10-17T03:56:16.839Z,48.85
2018-10-17T03:58:47.345Z,38.10
2018-10-17T04:01:17.419Z,35.63
2018-10-17T04:03:47.182Z,35.00
2018-10-17T04:06:23.902Z,36.50
2018-10-17T04:08:57.245Z,42.53
2018-10-17T04:11:27.482Z,41.80
2018-10-17T04:13:57.530Z,27.80
2018-10-17T04:16:27.489Z,38.75
2018-10-17T04:18:57.615Z,40.10
2018-10-17T04:21:27.483Z,35.05
2018-10-17T04:23:57.481Z,37.73
2018-10-17T04:26:27.624Z,38.30
2018-10-17T04:28:57.807Z,32.35
2018-10-17T04:31:27.745Z,29.65
2018-10-17T04:33:57.686Z,33.55
2018-10-17T04:36:27.610Z,37.73
2018-10-17T04:38:57.540Z,39.85
2018-10-17T04:41:27.445Z,37.73
2018-10-17T04:43:57.414Z,34.58
2018-10-17T04:46:27.326Z,35.25
2018-10-17T04:48:57.482Z,33.18
2018-10-17T04:51:27.415Z,27.62
2018-10-17T04:53:57.309Z,39.15
2018-10-17T04:56:27.538Z,35.92
2018-10-17T04:58:57.441Z,37.05
2018-10-17T05:01:27.765Z,36.50
2018-10-17T05:03:57.697Z,36.93
2018-10-17T05:06:27.676Z,43.25
2018-10-17T05:08:57.605Z,35.08
2018-10-17T05:11:27.590Z,39.55
2018-10-17T05:13:57.489Z,34.03
2018-10-17T05:16:27.661Z,32.30
2018-10-17T05:18:57.813Z,37.20
2018-10-17T05:21:27.699Z,39.58
2018-10-17T05:23:57.652Z,41.10
2018-10-17T05:26:27.642Z,43.48
2018-10-17T05:28:57.597Z,54.03
2018-10-17T05:31:27.449Z,42.15
2018-10-17T05:33:57.496Z,52.80
2018-10-17T05:36:27.599Z,36.80
2018-10-17T05:38:57.549Z,36.50
2018-10-17T05:41:28.169Z,46.50
2018-10-17T05:43:58.145Z,58.23
2018-10-17T05:46:28.081Z,47.27
2018-10-17T05:48:58.039Z,43.60
2018-10-17T05:51:28.207Z,87.97
2018-10-17T05:53:58.165Z,90.57
2018-10-17T05:56:28.103Z,200.60
2018-10-17T05:58:58.079Z,166.22
2018-10-17T06:01:28.132Z,200.85
2018-10-17T06:03:58.087Z,146.18
2018-10-17T06:06:28.070Z,97.75
2018-10-17T06:08:58.005Z,87.00
2018-10-17T06:11:27.974Z,56.60
2018-10-17T06:13:57.887Z,98.87
2018-10-17T06:16:28.809Z,87.78
2018-10-17T06:18:58.853Z,79.77
2018-10-17T06:21:28.893Z,69.58
2018-10-17T06:23:58.812Z,66.47
2018-10-17T06:26:29.322Z,61.25
2018-10-17T06:28:59.258Z,57.08
2018-10-17T06:31:29.320Z,56.88
2018-10-17T06:33:59.452Z,51.55
2018-10-17T06:36:29.760Z,59.30
2018-10-17T06:38:59.725Z,61.00
2018-10-17T06:41:29.985Z,62.90
2018-10-17T06:43:59.945Z,59.55
2018-10-17T06:46:29.893Z,61.13
2018-10-17T06:48:59.908Z,58.20
2018-10-17T06:51:29.857Z,48.33
2018-10-17T06:53:59.979Z,42.93
2018-10-17T06:56:29.882Z,43.78
2018-10-17T06:59:00.310Z,51.20
2018-10-17T07:01:30.202Z,51.50
2018-10-17T07:04:00.621Z,49.95
2018-10-17T07:06:30.570Z,56.75
2018-10-17T07:09:00.532Z,57.35
2018-10-17T07:11:30.434Z,55.55
2018-10-17T07:14:00.357Z,55.48
2018-10-17T07:16:30.596Z,53.28
2018-10-17T07:19:00.556Z,47.90
2018-10-17T07:21:30.485Z,45.83
2018-10-17T07:24:00.532Z,66.33
2018-10-17T07:26:30.454Z,59.53
2018-10-17T07:29:00.424Z,62.30
2018-10-17T07:31:30.373Z,59.98
2018-10-17T07:34:00.356Z,51.83
2018-10-17T07:36:30.693Z,58.15
2018-10-17T07:39:00.654Z,52.53
2018-10-17T07:41:30.620Z,47.85
2018-10-17T07:44:00.564Z,56.53
2018-10-17T07:46:30.529Z,54.30
2018-10-17T07:49:00.473Z,60.07
2018-10-17T07:51:30.417Z,50.17
2018-10-17T07:54:00.657Z,59.27
2018-10-17T07:56:30.544Z,56.63
2018-10-17T07:59:00.481Z,49.37
2018-10-17T08:01:30.661Z,49.23
2018-10-17T08:04:00.565Z,53.97
2018-10-17T08:06:30.457Z,59.97
2018-10-17T08:09:00.370Z,56.13
2018-10-17T08:11:30.321Z,60.23
2018-10-17T08:14:00.405Z,46.57
2018-10-17T08:16:30.884Z,58.70
2018-10-17T08:19:00.849Z,51.97
2018-10-17T08:21:30.913Z,48.77
2018-10-17T08:24:00.875Z,63.63
2018-10-17T08:26:30.801Z,54.73
2018-10-17T08:29:00.757Z,59.40
2018-10-17T08:31:30.661Z,67.80
2018-10-17T08:34:00.669Z,50.03
2018-10-17T08:36:30.779Z,71.67
2018-10-17T08:39:00.677Z,57.67
2018-10-17T08:41:30.846Z,75.17
2018-10-17T08:44:00.819Z,63.43
2018-10-17T08:46:30.677Z,60.27
2018-10-17T08:49:00.602Z,64.40
2018-10-17T08:51:30.558Z,65.17
2018-10-17T08:54:00.470Z,61.80
2018-10-17T08:56:30.505Z,58.67
2018-10-17T08:59:00.396Z,76.47
2018-10-17T09:01:30.309Z,55.23
2018-10-17T09:04:00.436Z,63.83
2018-10-17T09:06:30.377Z,58.90
2018-10-17T09:09:00.301Z,56.03
2018-10-17T09:11:30.271Z,64.03
2018-10-17T09:14:00.250Z,74.50
2018-10-17T09:16:31.090Z,56.30
2018-10-17T09:19:01.100Z,70.00
2018-10-17T09:21:31.209Z,71.43
2018-10-17T09:24:01.116Z,63.17
2018-10-17T09:26:31.044Z,56.20
2018-10-17T09:29:00.993Z,52.27
2018-10-17T09:31:37.280Z,46.20
2018-10-17T09:34:07.293Z,45.67
2018-10-17T09:36:37.303Z,48.67
2018-10-17T09:39:10.141Z,51.00
2018-10-17T09:41:40.302Z,47.17
2018-10-17T09:44:10.353Z,44.40
2018-10-17T09:46:40.350Z,49.80
2018-10-17T09:49:10.398Z,51.13
2018-10-17T09:51:40.398Z,53.23
2018-10-17T09:54:10.510Z,57.13
2018-10-17T09:56:40.323Z,55.30
2018-10-17T09:59:10.294Z,58.30
2018-10-17T10:01:45.533Z,53.17
2018-10-17T10:04:15.575Z,54.93
2018-10-17T10:06:45.898Z,47.87
2018-10-17T10:09:15.873Z,46.20
2018-10-17T10:11:45.889Z,51.50
2018-10-17T10:14:15.861Z,45.57
2018-10-17T10:16:45.830Z,46.90
2018-10-17T10:19:15.741Z,47.70
2018-10-17T10:21:45.664Z,46.53
2018-10-17T10:24:15.634Z,52.67
2018-10-17T10:26:45.581Z,52.73
2018-10-17T10:29:15.678Z,45.00
2018-10-17T10:31:45.617Z,43.73
2018-10-17T10:34:15.629Z,51.27
2018-10-17T10:36:45.742Z,41.63
2018-10-17T10:39:15.652Z,42.97
2018-10-17T10:41:46.521Z,48.03
2018-10-17T10:44:16.591Z,46.47
2018-10-17T10:46:46.453Z,51.03
2018-10-17T10:49:16.475Z,39.20
2018-10-17T10:51:46.493Z,39.13
2018-10-17T10:54:16.619Z,44.47
2018-10-17T10:56:47.318Z,43.23
2018-10-17T10:59:17.330Z,41.73
2018-10-17T11:01:47.426Z,44.47
2018-10-17T11:04:17.366Z,41.57
2018-10-17T11:06:47.323Z,46.70
2018-10-17T11:09:17.384Z,39.57
2018-10-17T11:11:47.361Z,33.93
2018-10-17T11:14:17.573Z,36.17
2018-10-17T11:16:47.350Z,35.30
2018-10-17T11:19:17.309Z,34.90
2018-10-17T11:21:47.271Z,36.83
2018-10-17T11:24:17.789Z,33.70
2018-10-17T11:26:47.934Z,33.50
2018-10-17T11:29:17.912Z,36.40
2018-10-17T11:31:48.168Z,39.00
2018-10-17T11:34:18.045Z,33.17
2018-10-17T11:36:48.020Z,41.37
2018-10-17T11:39:17.958Z,30.00
2018-10-17T11:41:48.090Z,35.27
2018-10-17T11:44:17.997Z,32.00
2018-10-17T11:46:47.966Z,29.97
2018-10-17T11:49:17.925Z,34.27
2018-10-17T11:51:47.856Z,33.90
2018-10-17T11:54:17.789Z,28.77
2018-10-17T11:56:47.721Z,40.13
2018-10-17T11:59:17.779Z,26.70
2018-10-17T12:01:47.565Z,31.80
2018-10-17T12:04:17.756Z,37.77
2018-10-17T12:06:47.429Z,37.23
2018-10-17T12:09:17.446Z,35.67
2018-10-17T12:11:47.400Z,41.13
2018-10-17T12:14:17.329Z,35.57
2018-10-17T12:16:47.212Z,37.83
2018-10-17T12:19:17.266Z,44.83
2018-10-17T12:21:47.173Z,38.63
2018-10-17T12:24:17.207Z,38.27
2018-10-17T12:26:47.037Z,42.73
2018-10-17T12:29:17.016Z,35.40
2018-10-17T12:31:46.960Z,38.43
2018-10-17T12:34:16.888Z,35.97
2018-10-17T12:36:46.809Z,32.03
2018-10-17T12:39:17.004Z,34.00
2018-10-17T12:41:46.871Z,33.37
2018-10-17T12:44:16.904Z,34.80
2018-10-17T12:46:46.718Z,32.33
2018-10-17T12:49:16.714Z,34.27
2018-10-17T12:51:46.684Z,26.87
2018-10-17T12:54:17.153Z,31.57
2018-10-17T12:56:47.093Z,36.53
2018-10-17T12:59:17.056Z,31.80
2018-10-17T13:01:47.026Z,32.43
2018-10-17T13:04:16.957Z,30.97
2018-10-17T13:06:47.121Z,42.73
2018-10-17T13:09:17.017Z,37.53
2018-10-17T13:11:46.969Z,27.63
2018-10-17T13:14:16.898Z,34.67
2018-10-17T13:16:46.909Z,27.67
2018-10-17T13:19:16.977Z,30.73
2018-10-17T13:21:46.846Z,30.90
2018-10-17T13:24:16.787Z,30.20
2018-10-17T13:26:46.764Z,34.83
2018-10-17T13:29:16.830Z,38.37
2018-10-17T13:31:46.713Z,32.23
2018-10-17T13:34:16.680Z,36.50
2018-10-17T13:36:46.561Z,37.30
2018-10-17T13:39:16.565Z,32.57
2018-10-17T13:41:46.479Z,46.57
2018-10-17T13:44:16.465Z,31.70
2018-10-17T13:46:46.891Z,27.63
2018-10-17T13:49:17.618Z,36.73
2018-10-17T13:51:48.127Z,29.40
2018-10-17T13:54:18.141Z,30.33
2018-10-17T13:56:48.065Z,35.57
2018-10-17T13:59:18.075Z,39.70
2018-10-17T14:01:47.910Z,32.83
2018-10-17T14:04:17.941Z,32.97
2018-10-17T14:06:47.781Z,27.30
2018-10-17T14:09:17.824Z,31.07
2018-10-17T14:11:47.643Z,35.87
2018-10-17T14:14:17.545Z,33.93
2018-10-17T14:16:47.538Z,31.93
2018-10-17T14:19:17.421Z,40.60
2018-10-17T14:21:47.373Z,30.63
2018-10-17T14:24:17.429Z,37.20
2018-10-17T14:26:47.493Z,34.17
2018-10-17T14:29:17.397Z,40.77
2018-10-17T14:31:47.301Z,34.00
2018-10-17T14:34:17.229Z,42.53
2018-10-17T14:36:47.155Z,37.33
2018-10-17T14:39:17.159Z,42.33
2018-10-17T14:41:47.150Z,37.20
2018-10-17T14:44:17.105Z,33.37
2018-10-17T14:46:46.997Z,35.80
2018-10-17T14:49:17.120Z,38.43
2018-10-17T14:51:47.078Z,37.53
2018-10-17T14:54:17.081Z,36.17
2018-10-17T14:56:46.986Z,33.40
2018-10-17T14:59:16.956Z,32.73
2018-10-17T15:01:46.998Z,38.77
2018-10-17T15:04:16.918Z,44.30
2018-10-17T15:06:46.889Z,29.03
2018-10-17T15:09:16.843Z,33.40
2018-10-17T15:11:46.946Z,31.87
2018-10-17T15:14:16.718Z,29.87
2018-10-17T15:16:46.717Z,29.20
2018-10-17T15:19:16.665Z,28.00
2018-10-17T15:21:46.607Z,32.60
2018-10-17T15:24:16.728Z,28.03
2018-10-17T15:26:46.669Z,26.87
2018-10-17T15:29:16.577Z,30.53
2018-10-17T15:31:46.534Z,31.77
2018-10-17T15:34:16.496Z,34.73
2018-10-17T15:36:46.473Z,24.70
2018-10-17T15:39:16.554Z,36.93
2018-10-17T15:41:46.389Z,37.53
2018-10-17T15:44:16.361Z,31.53
2018-10-17T15:46:46.257Z,26.97
2018-10-17T15:49:16.241Z,34.70
2018-10-17T15:51:46.138Z,24.17
2018-10-17T15:54:16.114Z,27.20
2018-10-17T15:56:46.046Z,31.33
2018-10-17T15:59:15.954Z,33.90
2018-10-17T16:01:45.872Z,35.60
2018-10-17T16:04:15.853Z,40.03
2018-10-17T16:06:46.141Z,40.27
2018-10-17T16:09:16.066Z,38.20
2018-10-17T16:11:46.005Z,41.43
2018-10-17T16:14:15.977Z,39.27
2018-10-17T16:16:45.873Z,34.70
2018-10-17T16:19:15.935Z,39.57
2018-10-17T16:21:52.646Z,40.43
2018-10-17T16:24:22.709Z,40.53
2018-10-17T16:26:52.612Z,30.97
2018-10-17T16:29:22.561Z,38.20
2018-10-17T16:31:52.492Z,49.30
2018-10-17T16:34:22.417Z,41.80
2018-10-17T16:36:52.396Z,46.50
2018-10-17T16:39:22.316Z,36.13
2018-10-17T16:41:52.260Z,32.10
2018-10-17T16:44:22.165Z,39.90
2018-10-17T16:46:52.148Z,48.30
2018-10-17T16:49:22.064Z,40.00
2018-10-17T16:51:52.079Z,44.00
2018-10-17T16:54:21.989Z,40.60
2018-10-17T16:56:51.906Z,45.50
2018-10-17T16:59:21.785Z,43.30
2018-10-17T17:01:51.698Z,48.53
2018-10-17T17:04:21.655Z,47.83
2018-10-17T17:06:51.593Z,43.60
2018-10-17T17:09:21.558Z,46.23
2018-10-17T17:11:51.533Z,44.07
2018-10-17T17:14:21.461Z,50.10
2018-10-17T17:16:51.389Z,58.97
2018-10-17T17:19:21.567Z,45.80
2018-10-17T17:21:51.477Z,54.20
2018-10-17T17:24:21.384Z,50.03
2018-10-17T17:26:51.384Z,51.63
2018-10-17T17:29:21.383Z,53.67
2018-10-17T17:31:51.420Z,50.30
2018-10-17T17:34:21.349Z,57.50
2018-10-17T17:36:52.186Z,51.30
2018-10-17T17:39:22.196Z,47.77
2018-10-17T17:41:52.218Z,59.83
2018-10-17T17:44:22.135Z,47.67
2018-10-17T17:46:52.101Z,58.30
2018-10-17T17:49:22.025Z,51.97
2018-10-17T17:51:52.003Z,56.07
2018-10-17T17:54:21.912Z,51.23
2018-10-17T17:56:52.166Z,50.90
2018-10-17T17:59:22.118Z,46.70
2018-10-17T18:01:52.097Z,50.67
2018-10-17T18:04:22.074Z,58.30
2018-10-17T18:06:51.980Z,55.13
2018-10-17T18:09:21.890Z,69.40
2018-10-17T18:11:51.870Z,58.50
2018-10-17T18:14:21.869Z,59.30
2018-10-17T18:16:52.657Z,57.60
2018-10-17T18:19:22.573Z,115.30
2018-10-17T18:21:52.508Z,60.30
2018-10-17T18:24:22.458Z,59.87
2018-10-17T18:26:52.487Z,68.87
2018-10-17T18:29:29.087Z,60.30
2018-10-17T18:31:59.070Z,58.00
2018-10-17T18:34:29.026Z,57.93
2018-10-17T18:36:58.945Z,100.03
2018-10-17T18:39:28.865Z,80.27
2018-10-17T18:41:58.801Z,55.33
2018-10-17T18:44:28.858Z,59.13
2018-10-17T18:46:58.789Z,45.87
2018-10-17T18:49:28.717Z,54.47
2018-10-17T18:51:58.705Z,55.37
2018-10-17T18:54:28.669Z,53.63
2018-10-17T18:56:58.669Z,48.80
2018-10-17T18:59:28.524Z,59.60
2018-10-17T19:01:58.492Z,54.13
2018-10-17T19:04:28.438Z,59.03
2018-10-17T19:06:58.388Z,55.10
2018-10-17T19:09:28.294Z,58.70
2018-10-17T19:11:58.242Z,51.70
2018-10-17T19:14:28.220Z,52.57
2018-10-17T19:16:58.370Z,55.70
2018-10-17T19:19:28.317Z,58.97
2018-10-17T19:21:58.276Z,52.50
2018-10-17T19:24:28.294Z,53.57
2018-10-17T19:26:58.252Z,49.70
2018-10-17T19:29:28.248Z,52.93
2018-10-17T19:31:58.601Z,47.93
2018-10-17T19:34:28.504Z,50.93
2018-10-17T19:37:05.410Z,52.17
2018-10-17T19:39:35.345Z,59.00
2018-10-17T19:42:05.379Z,50.50
2018-10-17T19:44:35.289Z,53.93
2018-10-17T19:47:05.596Z,53.40
2018-10-17T19:49:35.524Z,54.73
2018-10-17T19:52:05.466Z,53.33
2018-10-17T19:54:35.364Z,54.07
2018-10-17T19:57:05.391Z,58.53
2018-10-17T19:59:35.317Z,51.37
2018-10-17T20:02:05.887Z,59.43
2018-10-17T20:04:35.741Z,51.77
2018-10-17T20:07:06.226Z,60.47
2018-10-17T20:09:36.161Z,53.93
2018-10-17T20:12:06.245Z,55.67
2018-10-17T20:14:36.206Z,52.37
2018-10-17T20:17:06.912Z,59.63
2018-10-17T20:19:36.848Z,63.40
2018-10-17T20:22:08.781Z,58.00
2018-10-17T20:24:38.721Z,63.10
2018-10-17T20:27:09.109Z,61.70
2018-10-17T20:29:39.369Z,58.53
2018-10-17T20:32:10.005Z,57.67
2018-10-17T20:34:39.981Z,63.33
2018-10-17T20:37:09.965Z,58.93
2018-10-17T20:39:39.913Z,57.30
2018-10-17T20:42:09.872Z,64.83
2018-10-17T20:44:39.805Z,60.53
2018-10-17T20:47:09.717Z,54.90
2018-10-17T20:49:39.614Z,62.73
2018-10-17T20:52:09.571Z,58.93
2018-10-17T20:54:39.462Z,59.67
2018-10-17T20:57:09.342Z,57.50
2018-10-17T20:59:39.267Z,64.37
2018-10-17T21:02:09.186Z,60.27
2018-10-17T21:04:39.590Z,53.77
2018-10-17T21:07:09.552Z,54.53
2018-10-17T21:09:39.544Z,66.33
2018-10-17T21:12:09.489Z,61.53
2018-10-17T21:14:39.450Z,56.70
2018-10-17T21:17:10.166Z,61.30
2018-10-17T21:19:40.038Z,59.57
2018-10-17T21:22:10.008Z,61.20
2018-10-17T21:24:39.958Z,55.90
2018-10-17T21:27:09.916Z,59.40
2018-10-17T21:29:40.141Z,59.23
2018-10-17T21:32:10.193Z,58.30
2018-10-17T21:34:40.073Z,75.97
2018-10-17T21:37:09.978Z,70.83
2018-10-17T21:39:39.922Z,66.90
2018-10-17T21:42:09.872Z,65.33
2018-10-17T21:44:39.801Z,65.07
2018-10-17T21:47:09.814Z,67.97
2018-10-17T21:49:39.738Z,69.00
2018-10-17T21:52:09.616Z,69.80
2018-10-17T21:54:39.501Z,71.07
2018-10-17T21:57:09.633Z,71.93
2018-10-17T21:59:39.604Z,63.20
2018-10-17T22:02:09.569Z,62.47
2018-10-17T22:04:39.477Z,64.80
2018-10-17T22:07:09.691Z,66.90
2018-10-17T22:09:39.752Z,57.63
2018-10-17T22:12:09.644Z,62.07
2018-10-17T22:14:39.529Z,66.07
2018-10-17T22:17:09.421Z,63.47
2018-10-17T22:19:39.486Z,56.53
2018-10-17T22:22:09.353Z,67.80
2018-10-17T22:24:39.331Z,66.17
2018-10-17T22:27:09.301Z,61.87
2018-10-17T22:29:39.462Z,56.40
2018-10-17T22:32:10.437Z,62.93
2018-10-17T22:34:40.729Z,60.60
2018-10-17T22:37:10.621Z,65.17
2018-10-17T22:39:40.529Z,60.97
2018-10-17T22:42:10.432Z,66.77
2018-10-17T22:44:40.377Z,62.50
2018-10-17T22:47:10.433Z,61.67
2018-10-17T22:49:40.337Z,63.45
2018-10-17T22:52:10.264Z,61.77
2018-10-17T22:54:40.261Z,66.03
2018-10-17T22:57:10.185Z,62.30
2018-10-17T22:59:40.039Z,61.40
2018-10-17T23:02:10.063Z,78.90
2018-10-17T23:04:39.941Z,70.43
2018-10-17T23:07:09.837Z,65.87
2018-10-17T23:09:39.901Z,65.97
2018-10-17T23:12:09.922Z,68.95
2018-10-17T23:14:46.810Z,68.00
2018-10-17T23:17:16.701Z,73.60
2018-10-17T23:19:46.802Z,78.43
2018-10-17T23:22:16.761Z,81.87
2018-10-17T23:24:46.742Z,80.60
2018-10-17T23:27:16.781Z,75.43
2018-10-17T23:29:46.745Z,71.40
2018-10-17T23:32:16.798Z,79.30
2018-10-17T23:34:46.613Z,75.97
2018-10-17T23:37:16.584Z,73.20
2018-10-17T23:39:46.496Z,76.85
2018-10-17T23:42:16.512Z,66.97
2018-10-17T23:44:46.385Z,59.70
2018-10-17T23:47:16.326Z,62.13
2018-10-17T23:49:46.232Z,66.30
2018-10-17T23:52:16.529Z,64.75
2018-10-17T23:54:46.477Z,66.43
2018-10-17T23:57:16.399Z,63.40
2018-10-17T23:59:46.281Z,65.72
